APG321 RPLL-RPVE
Flight info
| Callsign | APG321 |
|---|---|
| Flight time | 0h 43m |
| Altitude | 25000 |
| Route | VERDE2R VERDE W24 TAPER TAPER7A |
| Aircraft | A320/M-SDE3FGHIRWY/LB1 |
Departure
| Time | 2026-04-25 12:52 |
|---|---|
| Airport | Ninoy Aquino International Airport (RPLL) |
Arrival
| Time | 2026-04-25 13:35 |
|---|---|
| Airport | Godofredo P. Ramos Airport (RPVE) |
| Time | Latitude | Longitude | Altitude | Speed | Heading |
|---|---|---|---|---|---|
| 2026-04-25 10:25 | 14.51737 | 121.01617 | 69 ft | 0 kts | 225° |
| 2026-04-25 12:39 | 14.51743 | 121.01623 | 68 ft | 2 kts | 225° |
| 2026-04-25 12:40 | 14.51754 | 121.01635 | 59 ft | 2 kts | 225° |
| 2026-04-25 12:40 | 14.51765 | 121.01647 | 60 ft | 2 kts | 225° |
| 2026-04-25 12:40 | 14.51777 | 121.01658 | 68 ft | 2 kts | 204° |
| 2026-04-25 12:40 | 14.51792 | 121.01663 | 61 ft | 2 kts | 182° |
| 2026-04-25 12:41 | 14.51809 | 121.01662 | 59 ft | 2 kts | 142° |
| 2026-04-25 12:41 | 14.51810 | 121.01662 | 59 ft | 0 kts | 138° |
| 2026-04-25 12:42 | 14.51801 | 121.01669 | 64 ft | 5 kts | 138° |
| 2026-04-25 12:43 | 14.51773 | 121.01699 | 64 ft | 7 kts | 135° |
| 2026-04-25 12:43 | 14.51733 | 121.01740 | 67 ft | 9 kts | 135° |
| 2026-04-25 12:43 | 14.51602 | 121.01752 | 62 ft | 13 kts | 225° |
| 2026-04-25 12:44 | 14.51533 | 121.01682 | 63 ft | 15 kts | 224° |
| 2026-04-25 12:44 | 14.51504 | 121.01653 | 62 ft | 0 kts | 225° |
| 2026-04-25 12:45 | 14.51504 | 121.01652 | 62 ft | 1 kts | 225° |
| 2026-04-25 12:45 | 14.51490 | 121.01639 | 66 ft | 8 kts | 225° |
| 2026-04-25 12:45 | 14.51358 | 121.01586 | 65 ft | 13 kts | 139° |
| 2026-04-25 12:46 | 14.51289 | 121.01656 | 65 ft | 15 kts | 135° |
| 2026-04-25 12:46 | 14.51212 | 121.01737 | 68 ft | 17 kts | 135° |
| 2026-04-25 12:46 | 14.51126 | 121.01825 | 69 ft | 18 kts | 135° |
| 2026-04-25 12:46 | 14.51049 | 121.01904 | 66 ft | 11 kts | 136° |
| 2026-04-25 12:47 | 14.50986 | 121.01887 | 62 ft | 12 kts | 237° |
| 2026-04-25 12:47 | 14.50941 | 121.01807 | 64 ft | 14 kts | 240° |
| 2026-04-25 12:47 | 14.50888 | 121.01712 | 64 ft | 17 kts | 240° |
| 2026-04-25 12:47 | 14.50815 | 121.01582 | 64 ft | 24 kts | 239° |
| 2026-04-25 12:48 | 14.50729 | 121.01428 | 68 ft | 26 kts | 242° |
| 2026-04-25 12:48 | 14.50642 | 121.01269 | 63 ft | 21 kts | 240° |
| 2026-04-25 12:48 | 14.50570 | 121.01142 | 60 ft | 22 kts | 240° |
| 2026-04-25 12:48 | 14.50492 | 121.01001 | 64 ft | 23 kts | 241° |
| 2026-04-25 12:49 | 14.50408 | 121.00850 | 63 ft | 25 kts | 239° |
| 2026-04-25 12:49 | 14.50317 | 121.00691 | 65 ft | 24 kts | 240° |
| 2026-04-25 12:49 | 14.50235 | 121.00543 | 65 ft | 21 kts | 240° |
| 2026-04-25 12:49 | 14.50159 | 121.00405 | 68 ft | 23 kts | 240° |
| 2026-04-25 12:50 | 14.50090 | 121.00279 | 63 ft | 20 kts | 240° |
| 2026-04-25 12:50 | 14.50015 | 121.00147 | 65 ft | 22 kts | 240° |
| 2026-04-25 12:50 | 14.49939 | 121.00008 | 66 ft | 21 kts | 240° |
| 2026-04-25 12:50 | 14.49860 | 120.99975 | 69 ft | 14 kts | 158° |
| 2026-04-25 12:51 | 14.49810 | 121.00050 | 69 ft | 15 kts | 70° |
| 2026-04-25 12:51 | 14.49862 | 121.00150 | 61 ft | 22 kts | 60° |
| 2026-04-25 12:51 | 14.50052 | 121.00490 | 61 ft | 87 kts | 60° |
| 2026-04-25 12:51 | 14.50441 | 121.01191 | 67 ft | 136 kts | 60° |
| 2026-04-25 12:52 | 14.50982 | 121.02161 | 121 ft | 170 kts | 62° |
| 2026-04-25 12:52 | 14.51550 | 121.03197 | 766 ft | 164 kts | 61° |
| 2026-04-25 12:52 | 14.52096 | 121.04227 | 1349 ft | 162 kts | 64° |
| 2026-04-25 12:52 | 14.52668 | 121.05296 | 1609 ft | 181 kts | 62° |
| 2026-04-25 12:53 | 14.53321 | 121.06501 | 1780 ft | 204 kts | 62° |
| 2026-04-25 12:53 | 14.54041 | 121.07822 | 2211 ft | 216 kts | 61° |
| 2026-04-25 12:53 | 14.54813 | 121.09176 | 2820 ft | 221 kts | 60° |
| 2026-04-25 12:53 | 14.55378 | 121.10666 | 3380 ft | 226 kts | 87° |
| 2026-04-25 12:54 | 14.55078 | 121.12238 | 4069 ft | 228 kts | 118° |
| 2026-04-25 12:54 | 14.54012 | 121.13457 | 4675 ft | 234 kts | 142° |
| 2026-04-25 12:54 | 14.52660 | 121.14421 | 5324 ft | 238 kts | 146° |
| 2026-04-25 12:54 | 14.51261 | 121.15357 | 5993 ft | 241 kts | 147° |
| 2026-04-25 12:55 | 14.49838 | 121.16302 | 6660 ft | 245 kts | 147° |
| 2026-04-25 12:55 | 14.48887 | 121.16932 | 7082 ft | 247 kts | 147° |
| 2026-04-25 12:55 | 14.46935 | 121.18221 | 7972 ft | 251 kts | 147° |
| 2026-04-25 12:55 | 14.45451 | 121.19195 | 8634 ft | 255 kts | 147° |
| 2026-04-25 12:56 | 14.43944 | 121.20176 | 9296 ft | 258 kts | 147° |
| 2026-04-25 12:56 | 14.42423 | 121.21163 | 9966 ft | 260 kts | 147° |
| 2026-04-25 12:56 | 14.40886 | 121.22167 | 10582 ft | 262 kts | 147° |
| 2026-04-25 12:56 | 14.39309 | 121.23206 | 10919 ft | 280 kts | 147° |
| 2026-04-25 12:57 | 14.37599 | 121.24343 | 11004 ft | 306 kts | 147° |
| 2026-04-25 12:57 | 14.35739 | 121.25587 | 11018 ft | 332 kts | 147° |
| 2026-04-25 12:57 | 14.33733 | 121.26930 | 11019 ft | 354 kts | 147° |
| 2026-04-25 12:57 | 14.31641 | 121.28330 | 11027 ft | 361 kts | 147° |
| 2026-04-25 12:58 | 14.29523 | 121.29747 | 11033 ft | 363 kts | 147° |
| 2026-04-25 12:58 | 14.27400 | 121.31167 | 11043 ft | 364 kts | 147° |
| 2026-04-25 12:58 | 14.25278 | 121.32585 | 11044 ft | 364 kts | 147° |
| 2026-04-25 12:58 | 14.23155 | 121.34005 | 11044 ft | 364 kts | 147° |
| 2026-04-25 12:59 | 14.21034 | 121.35421 | 11042 ft | 363 kts | 147° |
| 2026-04-25 12:59 | 14.18911 | 121.36839 | 11043 ft | 363 kts | 147° |
| 2026-04-25 12:59 | 14.16790 | 121.38255 | 11039 ft | 364 kts | 147° |
| 2026-04-25 12:59 | 14.14667 | 121.39673 | 11040 ft | 364 kts | 147° |
| 2026-04-25 13:00 | 14.12575 | 121.41070 | 11042 ft | 364 kts | 147° |
| 2026-04-25 13:00 | 14.11857 | 121.41550 | 11046 ft | 364 kts | 147° |
| 2026-04-25 13:00 | 14.08117 | 121.43406 | 11557 ft | 353 kts | 169° |
| 2026-04-25 13:00 | 14.05743 | 121.43568 | 12777 ft | 333 kts | 186° |
| 2026-04-25 13:01 | 14.03561 | 121.43071 | 13985 ft | 312 kts | 202° |
| 2026-04-25 13:01 | 14.01738 | 121.42025 | 15081 ft | 290 kts | 217° |
| 2026-04-25 13:01 | 14.00144 | 121.40817 | 15924 ft | 281 kts | 217° |
| 2026-04-25 13:01 | 13.98573 | 121.39621 | 16492 ft | 281 kts | 217° |
| 2026-04-25 13:02 | 13.96996 | 121.38421 | 17015 ft | 283 kts | 217° |
| 2026-04-25 13:02 | 13.95407 | 121.37213 | 17506 ft | 285 kts | 217° |
| 2026-04-25 13:02 | 13.93803 | 121.35999 | 17975 ft | 287 kts | 217° |
| 2026-04-25 13:02 | 13.92190 | 121.34777 | 18460 ft | 288 kts | 217° |
| 2026-04-25 13:03 | 13.90572 | 121.33552 | 18886 ft | 289 kts | 217° |
| 2026-04-25 13:03 | 13.88945 | 121.32322 | 19309 ft | 291 kts | 217° |
| 2026-04-25 13:03 | 13.87301 | 121.31078 | 19683 ft | 294 kts | 217° |
| 2026-04-25 13:03 | 13.85656 | 121.29833 | 20131 ft | 294 kts | 217° |
| 2026-04-25 13:04 | 13.84006 | 121.28584 | 20555 ft | 295 kts | 217° |
| 2026-04-25 13:04 | 13.82348 | 121.27327 | 20964 ft | 297 kts | 217° |
| 2026-04-25 13:04 | 13.80683 | 121.26065 | 21378 ft | 298 kts | 217° |
| 2026-04-25 13:04 | 13.79006 | 121.24797 | 21768 ft | 300 kts | 217° |
| 2026-04-25 13:05 | 13.77322 | 121.23523 | 22181 ft | 301 kts | 217° |
| 2026-04-25 13:05 | 13.75627 | 121.22243 | 22548 ft | 304 kts | 217° |
| 2026-04-25 13:05 | 13.73920 | 121.20952 | 22911 ft | 306 kts | 217° |
| 2026-04-25 13:05 | 13.72203 | 121.19651 | 23290 ft | 307 kts | 217° |
| 2026-04-25 13:06 | 13.70477 | 121.18347 | 23635 ft | 309 kts | 217° |
| 2026-04-25 13:06 | 13.68738 | 121.17034 | 23932 ft | 311 kts | 217° |
| 2026-04-25 13:06 | 13.66988 | 121.15715 | 24243 ft | 312 kts | 217° |
| 2026-04-25 13:06 | 13.65174 | 121.14480 | 24549 ft | 314 kts | 205° |
| 2026-04-25 13:07 | 13.63066 | 121.13871 | 24818 ft | 319 kts | 185° |
| 2026-04-25 13:07 | 13.60832 | 121.14129 | 24939 ft | 332 kts | 162° |
| 2026-04-25 13:07 | 13.58705 | 121.15181 | 24975 ft | 346 kts | 154° |
| 2026-04-25 13:07 | 13.56552 | 121.16384 | 24979 ft | 359 kts | 154° |
| 2026-04-25 13:08 | 13.54319 | 121.17639 | 24980 ft | 372 kts | 154° |
| 2026-04-25 13:08 | 13.52004 | 121.18942 | 24977 ft | 386 kts | 154° |
| 2026-04-25 13:08 | 13.49609 | 121.20284 | 24978 ft | 399 kts | 154° |
| 2026-04-25 13:08 | 13.47131 | 121.21666 | 24976 ft | 412 kts | 154° |
| 2026-04-25 13:09 | 13.44575 | 121.23083 | 24982 ft | 423 kts | 154° |
| 2026-04-25 13:09 | 13.41949 | 121.24534 | 24980 ft | 434 kts | 153° |
| 2026-04-25 13:09 | 13.39262 | 121.26022 | 24983 ft | 444 kts | 153° |
| 2026-04-25 13:09 | 13.36520 | 121.27544 | 24983 ft | 450 kts | 153° |
| 2026-04-25 13:10 | 13.33763 | 121.29076 | 24983 ft | 452 kts | 153° |
| 2026-04-25 13:10 | 13.30996 | 121.30613 | 24983 ft | 452 kts | 153° |
| 2026-04-25 13:10 | 13.28228 | 121.32146 | 24986 ft | 453 kts | 153° |
| 2026-04-25 13:10 | 13.25453 | 121.33683 | 24985 ft | 453 kts | 153° |
| 2026-04-25 13:11 | 13.22686 | 121.35218 | 24986 ft | 453 kts | 153° |
| 2026-04-25 13:11 | 13.19912 | 121.36756 | 24986 ft | 453 kts | 153° |
| 2026-04-25 13:11 | 13.17141 | 121.38292 | 24991 ft | 453 kts | 153° |
| 2026-04-25 13:11 | 13.15306 | 121.39309 | 24991 ft | 453 kts | 153° |
| 2026-04-25 13:12 | 13.12538 | 121.40841 | 24990 ft | 452 kts | 153° |
| 2026-04-25 13:12 | 13.09768 | 121.42372 | 24977 ft | 452 kts | 153° |
| 2026-04-25 13:12 | 13.07000 | 121.43905 | 24973 ft | 452 kts | 153° |
| 2026-04-25 13:12 | 13.05168 | 121.44921 | 24972 ft | 452 kts | 153° |
| 2026-04-25 13:13 | 13.01455 | 121.46982 | 24428 ft | 453 kts | 153° |
| 2026-04-25 13:13 | 12.98684 | 121.48518 | 23844 ft | 453 kts | 153° |
| 2026-04-25 13:13 | 12.95905 | 121.50052 | 23204 ft | 454 kts | 153° |
| 2026-04-25 13:13 | 12.93128 | 121.51584 | 22511 ft | 454 kts | 153° |
| 2026-04-25 13:14 | 12.90335 | 121.53126 | 21825 ft | 456 kts | 153° |
| 2026-04-25 13:14 | 12.87541 | 121.54666 | 21164 ft | 456 kts | 152° |
| 2026-04-25 13:14 | 12.84769 | 121.56195 | 20525 ft | 449 kts | 152° |
| 2026-04-25 13:14 | 12.82038 | 121.57704 | 19884 ft | 438 kts | 152° |
| 2026-04-25 13:15 | 12.79418 | 121.59153 | 19263 ft | 420 kts | 152° |
| 2026-04-25 13:15 | 12.76895 | 121.60548 | 18665 ft | 405 kts | 152° |
| 2026-04-25 13:15 | 12.74457 | 121.61893 | 18043 ft | 392 kts | 151° |
| 2026-04-25 13:15 | 12.72091 | 121.63197 | 17362 ft | 380 kts | 152° |
| 2026-04-25 13:16 | 12.69797 | 121.64458 | 16687 ft | 370 kts | 152° |
| 2026-04-25 13:16 | 12.67551 | 121.65696 | 16034 ft | 364 kts | 152° |
| 2026-04-25 13:16 | 12.65332 | 121.66921 | 15392 ft | 361 kts | 152° |
| 2026-04-25 13:16 | 12.63121 | 121.68139 | 14763 ft | 362 kts | 152° |
| 2026-04-25 13:17 | 12.60891 | 121.69366 | 14154 ft | 365 kts | 152° |
| 2026-04-25 13:17 | 12.58650 | 121.70603 | 13520 ft | 368 kts | 152° |
| 2026-04-25 13:17 | 12.56391 | 121.71848 | 12842 ft | 370 kts | 152° |
| 2026-04-25 13:17 | 12.54121 | 121.73096 | 12175 ft | 371 kts | 152° |
| 2026-04-25 13:18 | 12.51844 | 121.74347 | 11514 ft | 372 kts | 152° |
| 2026-04-25 13:18 | 12.49568 | 121.75600 | 10951 ft | 370 kts | 151° |
| 2026-04-25 13:18 | 12.47349 | 121.76823 | 10824 ft | 354 kts | 151° |
| 2026-04-25 13:18 | 12.45239 | 121.77984 | 10399 ft | 338 kts | 151° |
| 2026-04-25 13:19 | 12.43185 | 121.79099 | 9738 ft | 331 kts | 151° |
| 2026-04-25 13:19 | 12.41179 | 121.80166 | 9007 ft | 327 kts | 151° |
| 2026-04-25 13:19 | 12.39154 | 121.81227 | 8603 ft | 325 kts | 151° |
| 2026-04-25 13:19 | 12.37805 | 121.81935 | 8363 ft | 322 kts | 151° |
| 2026-04-25 13:20 | 12.35206 | 121.83162 | 8123 ft | 297 kts | 160° |
| 2026-04-25 13:20 | 12.33291 | 121.83731 | 8000 ft | 277 kts | 162° |
| 2026-04-25 13:20 | 12.31505 | 121.84254 | 7880 ft | 258 kts | 162° |
| 2026-04-25 13:20 | 12.29838 | 121.84747 | 7697 ft | 243 kts | 161° |
| 2026-04-25 13:21 | 12.28232 | 121.85224 | 7326 ft | 238 kts | 161° |
| 2026-04-25 13:21 | 12.26648 | 121.85695 | 6901 ft | 236 kts | 161° |
| 2026-04-25 13:21 | 12.25075 | 121.86163 | 6482 ft | 234 kts | 161° |
| 2026-04-25 13:21 | 12.23516 | 121.86629 | 6077 ft | 232 kts | 160° |
| 2026-04-25 13:22 | 12.21976 | 121.87089 | 6009 ft | 232 kts | 160° |
| 2026-04-25 13:22 | 12.20422 | 121.87553 | 6012 ft | 233 kts | 160° |
| 2026-04-25 13:22 | 12.18864 | 121.88018 | 6011 ft | 234 kts | 160° |
| 2026-04-25 13:23 | 12.15742 | 121.88952 | 6010 ft | 233 kts | 160° |
| 2026-04-25 13:23 | 12.14184 | 121.89415 | 6010 ft | 233 kts | 160° |
| 2026-04-25 13:23 | 12.12626 | 121.89877 | 6012 ft | 234 kts | 160° |
| 2026-04-25 13:23 | 12.11064 | 121.90341 | 6009 ft | 234 kts | 160° |
| 2026-04-25 13:24 | 12.09512 | 121.90799 | 5770 ft | 231 kts | 160° |
| 2026-04-25 13:24 | 12.07962 | 121.91239 | 5465 ft | 232 kts | 166° |
| 2026-04-25 13:24 | 12.06341 | 121.91339 | 5181 ft | 235 kts | 182° |
| 2026-04-25 13:24 | 12.04742 | 121.90967 | 4849 ft | 239 kts | 198° |
| 2026-04-25 13:25 | 12.03285 | 121.90136 | 4533 ft | 242 kts | 216° |
| 2026-04-25 13:25 | 12.02109 | 121.88903 | 4221 ft | 244 kts | 233° |
| 2026-04-25 13:25 | 12.01137 | 121.87475 | 3906 ft | 245 kts | 233° |
| 2026-04-25 13:25 | 12.00166 | 121.86055 | 3805 ft | 244 kts | 233° |
| 2026-04-25 13:26 | 11.99187 | 121.84631 | 3804 ft | 246 kts | 233° |
| 2026-04-25 13:26 | 11.98201 | 121.83201 | 3807 ft | 246 kts | 233° |
| 2026-04-25 13:26 | 11.97215 | 121.81773 | 3804 ft | 246 kts | 233° |
| 2026-04-25 13:26 | 11.96229 | 121.80344 | 3806 ft | 246 kts | 233° |
| 2026-04-25 13:27 | 11.95244 | 121.78911 | 3806 ft | 247 kts | 233° |
| 2026-04-25 13:27 | 11.94256 | 121.77472 | 3807 ft | 248 kts | 233° |
| 2026-04-25 13:27 | 11.93269 | 121.76033 | 3805 ft | 247 kts | 233° |
| 2026-04-25 13:27 | 11.92101 | 121.74791 | 3799 ft | 236 kts | 210° |
| 2026-04-25 13:28 | 11.90681 | 121.74170 | 3823 ft | 210 kts | 186° |
| 2026-04-25 13:28 | 11.89743 | 121.74076 | 3803 ft | 193 kts | 172° |
| 2026-04-25 13:28 | 11.88140 | 121.74450 | 3800 ft | 172 kts | 148° |
| 2026-04-25 13:28 | 11.87082 | 121.75002 | 3803 ft | 171 kts | 146° |
| 2026-04-25 13:29 | 11.86024 | 121.75552 | 3805 ft | 171 kts | 146° |
| 2026-04-25 13:29 | 11.84970 | 121.76108 | 3804 ft | 169 kts | 142° |
| 2026-04-25 13:29 | 11.84194 | 121.76921 | 3598 ft | 156 kts | 112° |
| 2026-04-25 13:30 | 11.84141 | 121.78855 | 3298 ft | 128 kts | 66° |
| 2026-04-25 13:30 | 11.84545 | 121.79654 | 2967 ft | 128 kts | 64° |
| 2026-04-25 13:30 | 11.84954 | 121.80466 | 2618 ft | 129 kts | 65° |
| 2026-04-25 13:31 | 11.85773 | 121.82094 | 2213 ft | 130 kts | 64° |
| 2026-04-25 13:31 | 11.86188 | 121.82918 | 2209 ft | 131 kts | 63° |
| 2026-04-25 13:31 | 11.86603 | 121.83744 | 2204 ft | 131 kts | 63° |
| 2026-04-25 13:31 | 11.87019 | 121.84572 | 2202 ft | 131 kts | 63° |
| 2026-04-25 13:32 | 11.87435 | 121.85398 | 2203 ft | 131 kts | 64° |
| 2026-04-25 13:32 | 11.87853 | 121.86233 | 1986 ft | 130 kts | 64° |
| 2026-04-25 13:32 | 11.88269 | 121.87064 | 1809 ft | 131 kts | 63° |
| 2026-04-25 13:32 | 11.88686 | 121.87894 | 1646 ft | 131 kts | 63° |
| 2026-04-25 13:33 | 11.89105 | 121.88729 | 1466 ft | 134 kts | 63° |
| 2026-04-25 13:33 | 11.89531 | 121.89575 | 1307 ft | 133 kts | 63° |
| 2026-04-25 13:33 | 11.89951 | 121.90411 | 1106 ft | 135 kts | 62° |
| 2026-04-25 13:33 | 11.90387 | 121.91278 | 892 ft | 135 kts | 63° |
| 2026-04-25 13:34 | 11.90818 | 121.92134 | 709 ft | 137 kts | 63° |
| 2026-04-25 13:34 | 11.91247 | 121.93018 | 528 ft | 139 kts | 64° |
| 2026-04-25 13:34 | 11.91673 | 121.93890 | 384 ft | 139 kts | 63° |
| 2026-04-25 13:34 | 11.92133 | 121.94758 | 124 ft | 138 kts | 63° |
| 2026-04-25 13:35 | 11.92542 | 121.95598 | 23 ft | 117 kts | 62° |
| 2026-04-25 13:35 | 11.92798 | 121.96100 | 26 ft | 44 kts | 63° |
| 2026-04-25 13:35 | 11.92908 | 121.96318 | 22 ft | 19 kts | 64° |
| 2026-04-25 13:35 | 11.92950 | 121.96408 | 20 ft | 14 kts | 75° |
| 2026-04-25 13:36 | 11.92901 | 121.96493 | 24 ft | 11 kts | 140° |
| 2026-04-25 13:36 | 11.92833 | 121.96532 | 24 ft | 11 kts | 166° |
| 2026-04-25 13:36 | 11.92791 | 121.96522 | 31 ft | 3 kts | 218° |
| 2026-04-25 13:36 | 11.92782 | 121.96513 | 33 ft | 0 kts | 225° |
| 2026-04-25 13:37 | 11.92769 | 121.96497 | 38 ft | 0 kts | 234° |
| 2026-04-25 13:37 | 11.92746 | 121.96455 | 45 ft | 8 kts | 243° |
| 2026-04-25 13:37 | 11.92733 | 121.96431 | 49 ft | 3 kts | 243° |
| 2026-04-25 13:37 | 11.92711 | 121.96407 | 47 ft | 6 kts | 193° |
| 2026-04-25 13:38 | 11.92692 | 121.96411 | 45 ft | 0 kts | 156° |